createdAt,value
2018-10-09T00:01:50.601Z,16.03
2018-10-09T00:04:18.785Z,16.50
2018-10-09T00:06:46.950Z,17.70
2018-10-09T00:09:15.301Z,16.80
2018-10-09T00:11:43.624Z,19.93
2018-10-09T00:14:11.865Z,16.10
2018-10-09T00:16:40.148Z,20.80
2018-10-09T00:19:08.369Z,18.20
2018-10-09T00:21:36.625Z,13.40
2018-10-09T00:24:04.872Z,18.23
2018-10-09T00:26:33.496Z,18.77
2018-10-09T00:29:01.703Z,16.10
2018-10-09T00:31:29.865Z,15.63
2018-10-09T00:33:58.128Z,17.23
2018-10-09T00:36:26.370Z,14.10
2018-10-09T00:38:54.572Z,17.77
2018-10-09T00:41:23.702Z,20.63
2018-10-09T00:43:52.440Z,16.73
2018-10-09T00:46:20.853Z,17.07
2018-10-09T00:48:49.127Z,18.63
2018-10-09T00:51:17.416Z,17.53
2018-10-09T00:53:45.609Z,19.87
2018-10-09T00:56:13.957Z,19.07
2018-10-09T00:58:42.164Z,16.20
2018-10-09T01:01:10.536Z,18.23
2018-10-09T01:03:38.764Z,18.37
2018-10-09T01:06:07.048Z,17.53
2018-10-09T01:08:35.230Z,18.30
2018-10-09T01:11:03.852Z,23.23
2018-10-09T01:13:32.108Z,23.27
2018-10-09T01:16:00.326Z,21.00
2018-10-09T01:18:29.595Z,19.00
2018-10-09T01:20:58.041Z,20.77
2018-10-09T01:23:26.226Z,17.83
2018-10-09T01:25:54.628Z,18.23
2018-10-09T01:28:22.858Z,18.30
2018-10-09T01:30:51.029Z,18.60
2018-10-09T01:33:19.612Z,18.33
2018-10-09T01:35:47.935Z,17.43
2018-10-09T01:38:16.136Z,16.13
2018-10-09T01:40:44.341Z,19.83
2018-10-09T01:43:12.508Z,20.03
2018-10-09T01:45:40.697Z,22.03
2018-10-09T01:48:08.917Z,18.63
2018-10-09T01:50:37.095Z,16.80
2018-10-09T01:53:06.004Z,19.23
2018-10-09T01:55:34.176Z,18.33
2018-10-09T01:58:02.376Z,16.23
2018-10-09T02:00:30.548Z,22.83
2018-10-09T02:02:58.790Z,20.07
2018-10-09T02:05:26.972Z,17.63
2018-10-09T02:07:55.248Z,17.40
2018-10-09T02:10:23.877Z,23.83
2018-10-09T02:12:52.061Z,20.47
2018-10-09T02:15:20.288Z,17.83
2018-10-09T02:17:48.489Z,17.27
2018-10-09T02:20:16.852Z,21.03
2018-10-09T02:22:45.016Z,18.77
2018-10-09T02:25:13.252Z,19.30
2018-10-09T02:27:41.512Z,19.93
2018-10-09T02:30:10.253Z,16.77
2018-10-09T02:32:38.476Z,16.23
2018-10-09T02:35:06.653Z,16.40
2018-10-09T02:37:34.876Z,18.77
2018-10-09T02:40:03.121Z,14.17
2018-10-09T02:42:31.312Z,14.43
2018-10-09T02:44:59.492Z,16.57
2018-10-09T02:47:27.865Z,16.03
2018-10-09T02:49:56.157Z,20.13
2018-10-09T02:52:24.340Z,17.73
2018-10-09T02:54:52.520Z,18.60
2018-10-09T02:57:20.786Z,19.63
2018-10-09T02:59:48.977Z,16.10
2018-10-09T03:02:17.192Z,17.67
2018-10-09T03:04:46.021Z,17.10
2018-10-09T03:07:14.336Z,19.90
2018-10-09T03:09:42.541Z,17.50
2018-10-09T03:12:10.765Z,16.13
2018-10-09T03:14:38.936Z,23.23
2018-10-09T03:17:07.464Z,21.83
2018-10-09T03:19:35.641Z,17.77
2018-10-09T03:22:03.805Z,17.23
2018-10-09T03:24:32.040Z,18.50
2018-10-09T03:27:00.304Z,21.40
2018-10-09T03:29:28.480Z,14.00
2018-10-09T03:31:56.726Z,18.83
2018-10-09T03:34:25.174Z,19.30
2018-10-09T03:36:53.386Z,23.70
2018-10-09T03:39:22.444Z,17.53
2018-10-09T03:41:50.677Z,21.07
2018-10-09T03:44:18.902Z,21.73
2018-10-09T03:46:47.084Z,19.93
2018-10-09T03:49:15.357Z,18.50
2018-10-09T03:51:43.609Z,19.10
2018-10-09T03:54:12.814Z,21.20
2018-10-09T03:56:41.092Z,20.33
2018-10-09T03:59:09.249Z,16.17
2018-10-09T04:01:37.508Z,20.17
2018-10-09T04:04:05.947Z,20.47
2018-10-09T04:06:34.157Z,18.83
2018-10-09T04:09:02.444Z,17.80
2018-10-09T04:11:30.683Z,15.87
2018-10-09T04:13:58.926Z,20.80
2018-10-09T04:16:27.104Z,20.77
2018-10-09T04:18:55.324Z,19.87
2018-10-09T04:21:23.516Z,21.27
2018-10-09T04:23:51.786Z,16.60
2018-10-09T04:26:19.988Z,20.80
2018-10-09T04:28:48.192Z,24.97
2018-10-09T04:31:16.522Z,18.27
2018-10-09T04:33:44.823Z,23.20
2018-10-09T04:36:13.037Z,20.97
2018-10-09T04:38:41.437Z,23.10
2018-10-09T04:41:09.765Z,21.63
2018-10-09T04:43:37.977Z,22.43
2018-10-09T04:46:06.206Z,25.00
2018-10-09T04:48:34.528Z,21.77
2018-10-09T04:51:02.768Z,25.33
2018-10-09T04:53:30.989Z,19.67
2018-10-09T04:55:59.370Z,23.10
2018-10-09T04:58:27.532Z,22.10
2018-10-09T05:00:55.795Z,25.63
2018-10-09T05:03:24.082Z,23.53
2018-10-09T05:05:52.597Z,24.50
2018-10-09T05:08:20.929Z,18.70
2018-10-09T05:10:49.131Z,23.47
2018-10-09T05:13:17.472Z,27.60
2018-10-09T05:15:45.679Z,23.93
2018-10-09T05:18:14.015Z,25.77
2018-10-09T05:20:42.258Z,26.87
2018-10-09T05:23:10.496Z,24.37
2018-10-09T05:25:38.792Z,23.67
2018-10-09T05:28:07.330Z,24.67
2018-10-09T05:30:36.189Z,24.17
2018-10-09T05:33:04.940Z,23.97
2018-10-09T05:35:33.549Z,25.43
2018-10-09T05:38:02.089Z,21.17
2018-10-09T05:40:30.579Z,24.47
2018-10-09T05:42:59.009Z,31.70
2018-10-09T05:45:27.638Z,26.93
2018-10-09T05:47:55.973Z,24.77
2018-10-09T05:50:24.489Z,28.57
2018-10-09T05:52:52.936Z,29.33
2018-10-09T05:55:21.445Z,22.63
2018-10-09T05:57:50.095Z,20.83
2018-10-09T06:00:18.578Z,21.07
2018-10-09T06:02:47.112Z,24.50
2018-10-09T06:05:15.672Z,23.03
2018-10-09T06:07:44.218Z,22.40
2018-10-09T06:10:12.766Z,21.00
2018-10-09T06:12:41.222Z,19.60
2018-10-09T06:15:09.627Z,17.80
2018-10-09T06:17:38.045Z,19.70
2018-10-09T06:20:06.677Z,24.03
2018-10-09T06:22:35.064Z,23.30
2018-10-09T06:25:03.406Z,23.33
2018-10-09T06:27:31.628Z,21.77
2018-10-09T06:29:59.832Z,21.57
2018-10-09T06:32:28.088Z,24.90
2018-10-09T06:34:56.279Z,18.63
2018-10-09T06:37:24.618Z,18.60
2018-10-09T06:39:52.910Z,24.03
2018-10-09T06:42:21.158Z,20.27
2018-10-09T06:44:49.393Z,22.10
2018-10-09T06:47:17.616Z,19.77
2018-10-09T06:49:45.833Z,22.53
2018-10-09T06:52:14.004Z,18.93
2018-10-09T06:54:42.796Z,27.30
2018-10-09T06:57:10.911Z,21.40
2018-10-09T06:59:39.225Z,23.00
2018-10-09T07:02:07.457Z,21.90
2018-10-09T07:04:35.798Z,21.10
2018-10-09T07:07:04.193Z,24.20
2018-10-09T07:09:32.518Z,27.50
2018-10-09T07:12:00.701Z,26.43
2018-10-09T07:14:28.997Z,28.90
2018-10-09T07:16:57.338Z,23.47
2018-10-09T07:19:25.845Z,28.03
2018-10-09T07:21:54.247Z,22.17
2018-10-09T07:24:22.682Z,22.43
2018-10-09T07:26:50.988Z,25.73
2018-10-09T07:29:19.558Z,23.43
2018-10-09T07:31:48.002Z,25.13
2018-10-09T07:34:16.538Z,19.40
2018-10-09T07:36:44.858Z,29.00
2018-10-09T07:39:14.388Z,25.97
2018-10-09T07:41:43.557Z,24.93
2018-10-09T07:44:11.948Z,24.50
2018-10-09T07:46:40.389Z,24.10
2018-10-09T07:49:09.981Z,24.53
2018-10-09T07:51:38.193Z,31.43
2018-10-09T07:54:06.387Z,23.37
2018-10-09T07:56:34.648Z,25.90
2018-10-09T07:59:02.885Z,24.97
2018-10-09T08:01:31.101Z,21.63
2018-10-09T08:04:01.601Z,26.47
2018-10-09T08:06:30.037Z,19.63
2018-10-09T08:08:58.322Z,26.73
2018-10-09T08:11:26.552Z,29.20
2018-10-09T08:13:54.742Z,23.07
2018-10-09T08:16:23.023Z,22.93
2018-10-09T08:18:51.166Z,25.40
2018-10-09T08:21:19.843Z,25.17
2018-10-09T08:23:48.060Z,26.17
2018-10-09T08:26:16.345Z,25.07
2018-10-09T08:28:44.656Z,25.20
2018-10-09T08:31:12.843Z,25.17
2018-10-09T08:33:41.130Z,26.07
2018-10-09T08:36:09.453Z,27.17
2018-10-09T08:38:37.721Z,27.57
2018-10-09T08:41:06.202Z,29.83
2018-10-09T08:43:34.400Z,23.10
2018-10-09T08:46:02.611Z,28.03
2018-10-09T08:48:30.926Z,26.47
2018-10-09T08:51:00.243Z,23.77
2018-10-09T08:53:28.458Z,25.53
2018-10-09T08:55:56.713Z,28.23
2018-10-09T08:58:25.009Z,24.87
2018-10-09T09:00:54.181Z,29.77
2018-10-09T09:03:22.482Z,24.57
2018-10-09T09:05:50.745Z,25.37
2018-10-09T09:08:19.029Z,25.03
2018-10-09T09:10:47.329Z,26.70
2018-10-09T09:13:17.613Z,29.00
2018-10-09T09:15:45.941Z,30.00
2018-10-09T09:18:14.176Z,28.47
2018-10-09T09:20:42.502Z,28.00
2018-10-09T09:23:11.681Z,30.10
2018-10-09T09:25:39.905Z,34.13
2018-10-09T09:28:08.126Z,33.40
2018-10-09T09:30:36.426Z,31.63
2018-10-09T09:33:04.675Z,28.63
2018-10-09T09:35:33.286Z,31.17
2018-10-09T09:38:01.585Z,28.37
2018-10-09T09:40:29.793Z,29.20
2018-10-09T09:42:58.103Z,34.23
2018-10-09T09:45:26.377Z,34.47
2018-10-09T09:47:54.857Z,30.50
2018-10-09T09:50:23.125Z,33.90
2018-10-09T09:52:51.792Z,30.20
2018-10-09T09:55:20.002Z,33.60
2018-10-09T09:57:48.227Z,35.20
2018-10-09T10:00:21.661Z,38.63
2018-10-09T10:02:49.929Z,39.33
2018-10-09T10:05:18.159Z,38.80
2018-10-09T10:07:46.434Z,38.87
2018-10-09T10:10:15.580Z,36.40
2018-10-09T10:12:43.782Z,39.10
2018-10-09T10:15:12.040Z,36.27
2018-10-09T10:17:40.273Z,31.97
2018-10-09T10:20:08.580Z,34.87
2018-10-09T10:22:37.093Z,33.60
2018-10-09T10:25:05.346Z,35.53
2018-10-09T10:27:33.621Z,28.97
2018-10-09T10:30:01.852Z,35.17
2018-10-09T10:32:30.103Z,39.97
2018-10-09T10:34:58.351Z,34.77
2018-10-09T10:37:26.625Z,31.23
2018-10-09T10:39:54.892Z,35.33
2018-10-09T10:42:23.089Z,36.93
2018-10-09T10:44:51.381Z,28.53
2018-10-09T10:47:19.660Z,27.30
2018-10-09T10:49:47.869Z,33.43
2018-10-09T10:52:16.135Z,30.70
2018-10-09T10:54:44.380Z,31.83
2018-10-09T10:57:12.599Z,35.20
2018-10-09T10:59:40.841Z,33.07
2018-10-09T11:02:09.068Z,35.40
2018-10-09T11:04:37.301Z,34.50
2018-10-09T11:07:05.561Z,34.73
2018-10-09T11:09:33.742Z,34.53
2018-10-09T11:12:01.951Z,36.90
2018-10-09T11:14:30.248Z,38.90
2018-10-09T11:16:58.514Z,42.63
2018-10-09T11:19:26.684Z,38.70
2018-10-09T11:21:54.901Z,40.67
2018-10-09T11:24:23.174Z,37.50
2018-10-09T11:26:51.373Z,30.80
2018-10-09T11:29:19.565Z,34.07
2018-10-09T11:31:47.789Z,37.30
2018-10-09T11:34:16.138Z,41.77
2018-10-09T11:36:46.529Z,40.83
2018-10-09T11:39:14.828Z,38.73
2018-10-09T11:41:43.138Z,33.40
2018-10-09T11:44:11.372Z,34.60
2018-10-09T11:46:39.650Z,34.90
2018-10-09T11:49:08.069Z,29.17
2018-10-09T11:51:36.474Z,37.93
2018-10-09T11:54:04.757Z,47.10
2018-10-09T11:56:33.147Z,37.03
2018-10-09T11:59:02.106Z,31.40
2018-10-09T12:01:30.358Z,32.53
2018-10-09T12:03:58.565Z,36.97
2018-10-09T12:06:27.050Z,33.83
2018-10-09T12:08:55.254Z,35.60
2018-10-09T12:11:23.562Z,37.37
2018-10-09T12:13:51.829Z,37.53
2018-10-09T12:16:20.275Z,36.53
2018-10-09T12:18:48.580Z,35.97
2018-10-09T12:21:16.898Z,30.73
2018-10-09T12:23:45.174Z,28.67
2018-10-09T12:26:13.406Z,27.13
2018-10-09T12:28:42.105Z,24.57
2018-10-09T12:31:10.451Z,32.67
2018-10-09T12:33:38.838Z,26.17
2018-10-09T12:36:07.382Z,23.97
2018-10-09T12:38:35.741Z,26.67
2018-10-09T12:41:04.382Z,31.77
2018-10-09T12:43:32.693Z,31.03
2018-10-09T12:46:01.022Z,31.83
2018-10-09T12:48:29.505Z,30.00
2018-10-09T12:50:58.055Z,25.67
2018-10-09T12:53:26.289Z,29.60
2018-10-09T12:55:54.746Z,23.97
2018-10-09T12:58:23.156Z,23.97
2018-10-09T13:00:51.313Z,24.33
2018-10-09T13:03:19.505Z,21.97
2018-10-09T13:05:47.758Z,21.83
2018-10-09T13:08:16.081Z,25.33
2018-10-09T13:10:44.279Z,28.07
2018-10-09T13:13:12.511Z,21.67
2018-10-09T13:15:40.824Z,26.60
2018-10-09T13:18:09.286Z,31.73
2018-10-09T13:20:37.479Z,24.93
2018-10-09T13:23:05.863Z,26.63
2018-10-09T13:25:34.196Z,23.97
2018-10-09T13:28:02.433Z,23.07
2018-10-09T13:30:30.873Z,27.70
2018-10-09T13:32:59.097Z,25.53
2018-10-09T13:35:27.501Z,20.83
2018-10-09T13:37:55.816Z,20.33
2018-10-09T13:40:24.250Z,20.40
2018-10-09T13:42:52.551Z,21.03
2018-10-09T13:45:20.882Z,19.27
2018-10-09T13:47:49.277Z,19.90
2018-10-09T13:50:17.559Z,19.60
2018-10-09T13:52:45.880Z,17.43
2018-10-09T13:55:14.340Z,17.50
2018-10-09T13:57:42.608Z,20.37
2018-10-09T14:00:10.978Z,23.73
2018-10-09T14:02:41.771Z,24.07
2018-10-09T14:05:10.203Z,20.70
2018-10-09T14:07:38.590Z,17.87
2018-10-09T14:10:07.180Z,19.53
2018-10-09T14:12:35.534Z,19.47
2018-10-09T14:15:03.982Z,21.47
2018-10-09T14:17:32.345Z,19.13
2018-10-09T14:20:00.672Z,19.93
2018-10-09T14:22:29.070Z,19.87
2018-10-09T14:24:57.317Z,18.87
2018-10-09T14:27:25.642Z,18.67
2018-10-09T14:29:54.041Z,20.10
2018-10-09T14:35:45.944Z,18.13
2018-10-09T14:38:22.323Z,16.80
2018-10-09T14:41:13.958Z,22.83
2018-10-09T14:46:47.218Z,30.70
2018-10-09T14:49:17.355Z,26.07
2018-10-09T14:52:20.214Z,23.27
2018-10-09T14:54:48.564Z,25.40
2018-10-09T14:57:17.013Z,21.87
2018-10-09T14:59:45.659Z,23.40
2018-10-09T15:02:15.462Z,20.67
2018-10-09T15:04:43.785Z,20.40
2018-10-09T15:07:12.066Z,26.93
2018-10-09T15:09:40.825Z,19.53
2018-10-09T15:12:09.601Z,21.30
2018-10-09T15:14:37.974Z,25.07
2018-10-09T15:17:06.528Z,23.17
2018-10-09T15:19:35.758Z,21.43
2018-10-09T15:22:04.808Z,21.07
2018-10-09T15:24:34.647Z,24.47
2018-10-09T15:27:05.984Z,20.17
2018-10-09T15:29:35.625Z,21.00
2018-10-09T15:32:04.390Z,22.83
2018-10-09T15:34:32.733Z,22.57
2018-10-09T15:37:06.218Z,19.90
2018-10-09T15:39:38.148Z,22.73
2018-10-09T15:42:06.431Z,18.57
2018-10-09T15:44:34.888Z,21.50
2018-10-09T15:47:03.251Z,19.73
2018-10-09T15:49:31.580Z,20.60
2018-10-09T15:52:00.008Z,16.33
2018-10-09T15:54:28.304Z,18.43
2018-10-09T15:56:56.697Z,17.13
2018-10-09T15:59:25.222Z,14.70
2018-10-09T16:01:53.625Z,25.27
2018-10-09T16:04:22.349Z,18.70
2018-10-09T16:06:51.367Z,18.43
2018-10-09T16:09:19.677Z,14.87
2018-10-09T16:11:48.083Z,17.73
2018-10-09T16:14:16.555Z,17.77
2018-10-09T16:16:45.062Z,14.77
2018-10-09T16:19:13.493Z,14.40
2018-10-09T16:21:42.968Z,22.43
2018-10-09T16:24:11.268Z,19.60
2018-10-09T16:26:40.403Z,19.57
2018-10-09T16:29:09.810Z,19.17
2018-10-09T16:31:38.118Z,16.77
2018-10-09T16:34:06.529Z,18.87
2018-10-09T16:36:35.083Z,18.40
2018-10-09T16:39:04.366Z,20.23
2018-10-09T16:41:32.696Z,17.87
2018-10-09T16:44:00.982Z,18.23
2018-10-09T16:46:29.352Z,19.97
2018-10-09T16:48:57.721Z,23.63
2018-10-09T16:51:26.102Z,25.17
2018-10-09T16:53:54.585Z,21.53
2018-10-09T16:56:23.505Z,21.57
2018-10-09T16:58:52.065Z,23.77
2018-10-09T17:01:24.990Z,25.37
2018-10-09T17:03:59.000Z,28.63
2018-10-09T17:06:27.294Z,27.17
2018-10-09T17:08:55.779Z,25.50
2018-10-09T17:11:24.157Z,27.63
2018-10-09T17:13:52.425Z,28.90
2018-10-09T17:16:20.825Z,29.90
2018-10-09T17:18:49.173Z,28.00
2018-10-09T17:21:17.472Z,31.90
2018-10-09T17:23:46.575Z,29.10
2018-10-09T17:26:14.877Z,27.67
2018-10-09T17:28:43.187Z,29.83
2018-10-09T17:31:11.529Z,26.30
2018-10-09T17:33:40.220Z,28.20
2018-10-09T17:36:08.443Z,27.40
2018-10-09T17:38:37.807Z,26.90
2018-10-09T17:41:06.341Z,30.67
2018-10-09T17:43:35.888Z,30.43
2018-10-09T17:46:04.216Z,30.23
2018-10-09T17:48:33.060Z,26.50
2018-10-09T17:51:01.911Z,32.07
2018-10-09T17:53:30.320Z,27.73
2018-10-09T17:55:58.610Z,29.20
2018-10-09T17:58:26.912Z,30.93
2018-10-09T18:00:55.284Z,31.73
2018-10-09T18:03:25.790Z,29.93
2018-10-09T18:05:54.014Z,33.57
2018-10-09T18:08:30.313Z,44.67
2018-10-09T18:11:02.611Z,49.47
2018-10-09T18:13:30.870Z,78.93
2018-10-09T18:16:00.174Z,64.40
2018-10-09T18:18:28.427Z,58.93
2018-10-09T18:20:56.697Z,40.93
2018-10-09T18:23:27.100Z,41.40
2018-10-09T18:25:55.451Z,40.80
2018-10-09T18:28:23.793Z,39.83
2018-10-09T18:30:52.115Z,43.40
2018-10-09T18:33:20.472Z,38.87
2018-10-09T18:35:48.609Z,37.60
2018-10-09T18:38:16.917Z,35.17
2018-10-09T18:40:45.179Z,39.43
2018-10-09T18:43:15.429Z,35.07
2018-10-09T18:45:43.729Z,35.20
2018-10-09T18:48:12.001Z,39.87
2018-10-09T18:50:40.338Z,39.70
2018-10-09T18:53:09.722Z,36.50
2018-10-09T18:55:40.237Z,38.90
2018-10-09T18:58:09.814Z,43.70
2018-10-09T19:00:38.188Z,34.77
2018-10-09T19:03:07.617Z,35.17
2018-10-09T19:05:35.859Z,41.53
2018-10-09T19:08:04.329Z,36.90
2018-10-09T19:10:32.645Z,41.77
2018-10-09T19:13:05.202Z,42.80
2018-10-09T19:15:41.278Z,41.43
2018-10-09T19:18:09.547Z,48.53
2018-10-09T19:20:37.851Z,39.20
2018-10-09T19:23:06.373Z,50.97
2018-10-09T19:25:37.340Z,42.13
2018-10-09T19:28:06.611Z,46.50
2018-10-09T19:30:37.577Z,39.37
2018-10-09T19:33:06.037Z,37.40
2018-10-09T19:35:34.853Z,40.90
2018-10-09T19:38:03.123Z,43.63
2018-10-09T19:40:31.801Z,42.80
2018-10-09T19:43:00.072Z,36.30
2018-10-09T19:45:28.385Z,42.73
2018-10-09T19:47:56.703Z,41.53
2018-10-09T19:50:25.045Z,41.60
2018-10-09T19:52:53.953Z,42.37
2018-10-09T19:55:23.308Z,39.83
2018-10-09T19:57:51.587Z,41.67
2018-10-09T20:00:20.637Z,39.53
2018-10-09T20:02:51.266Z,45.10
2018-10-09T20:05:19.610Z,42.60
2018-10-09T20:07:47.987Z,39.67
2018-10-09T20:10:16.337Z,42.73
2018-10-09T20:12:50.327Z,43.73
2018-10-09T20:15:19.563Z,43.53
2018-10-09T20:17:52.820Z,44.63
2018-10-09T20:20:21.377Z,41.40
2018-10-09T20:22:49.725Z,41.93
2018-10-09T20:25:19.012Z,37.33
2018-10-09T20:27:47.297Z,38.53
2018-10-09T20:30:15.555Z,42.87
2018-10-09T20:32:43.857Z,41.43
2018-10-09T20:35:12.665Z,42.17
2018-10-09T20:37:41.153Z,41.87
2018-10-09T20:40:09.441Z,36.83
2018-10-09T20:42:37.751Z,38.77
2018-10-09T20:45:06.305Z,40.87
2018-10-09T20:47:40.141Z,39.53
2018-10-09T20:50:08.361Z,41.33
2018-10-09T20:52:36.552Z,37.93
2018-10-09T20:55:05.061Z,39.33
2018-10-09T20:57:33.309Z,42.47
2018-10-09T21:00:01.513Z,43.20
2018-10-09T21:02:29.828Z,38.93
2018-10-09T21:04:58.017Z,37.33
2018-10-09T21:07:26.296Z,37.20
2018-10-09T21:09:54.524Z,37.10
2018-10-09T21:12:22.780Z,36.57
2018-10-09T21:14:51.000Z,34.73
2018-10-09T21:17:19.272Z,40.57
2018-10-09T21:19:47.455Z,42.00
2018-10-09T21:22:15.647Z,40.87
2018-10-09T21:24:43.834Z,38.53
2018-10-09T21:27:12.407Z,39.93
2018-10-09T21:29:40.687Z,40.93
2018-10-09T21:32:08.861Z,42.10
2018-10-09T21:34:37.129Z,42.17
2018-10-09T21:37:05.685Z,37.27
2018-10-09T21:39:34.073Z,39.47
2018-10-09T21:42:02.310Z,38.00
2018-10-09T21:44:30.549Z,38.40
2018-10-09T21:46:58.976Z,43.10
2018-10-09T21:49:27.185Z,45.13
2018-10-09T21:51:55.370Z,43.60
2018-10-09T21:54:23.639Z,45.07
2018-10-09T21:56:51.825Z,38.20
2018-10-09T21:59:20.026Z,45.80
2018-10-09T22:01:48.244Z,40.93
2018-10-09T22:04:16.512Z,40.00
2018-10-09T22:06:44.879Z,36.90
2018-10-09T22:09:13.229Z,35.60
2018-10-09T22:11:41.485Z,41.87
2018-10-09T22:14:09.696Z,41.23
2018-10-09T22:16:37.894Z,45.47
2018-10-09T22:19:06.494Z,42.53
2018-10-09T22:21:34.693Z,39.00
2018-10-09T22:24:03.030Z,41.67
2018-10-09T22:26:31.257Z,44.27
2018-10-09T22:28:59.569Z,46.50
2018-10-09T22:31:27.746Z,38.90
2018-10-09T22:33:55.908Z,36.20
2018-10-09T22:36:24.224Z,44.63
2018-10-09T22:38:52.424Z,37.07
2018-10-09T22:41:20.829Z,42.60
2018-10-09T22:43:49.176Z,45.40
2018-10-09T22:46:17.348Z,49.20
2018-10-09T22:48:45.657Z,42.23
2018-10-09T22:51:13.862Z,43.63
2018-10-09T22:53:42.484Z,39.37
2018-10-09T22:56:10.706Z,40.93
2018-10-09T22:58:38.943Z,38.80
2018-10-09T23:01:07.179Z,42.50
2018-10-09T23:03:35.509Z,42.90
2018-10-09T23:06:03.795Z,38.90
2018-10-09T23:08:32.115Z,40.57
2018-10-09T23:11:00.617Z,41.80
2018-10-09T23:13:28.992Z,40.23
2018-10-09T23:15:57.339Z,40.47
2018-10-09T23:18:26.680Z,40.43
2018-10-09T23:20:55.124Z,37.40
2018-10-09T23:23:23.329Z,38.07
2018-10-09T23:25:51.501Z,38.07
2018-10-09T23:28:19.733Z,39.40
2018-10-09T23:30:47.947Z,38.53
2018-10-09T23:33:16.165Z,37.80
2018-10-09T23:35:44.464Z,37.97
2018-10-09T23:38:12.652Z,43.00
2018-10-09T23:40:40.822Z,38.67
2018-10-09T23:43:09.106Z,35.30
2018-10-09T23:45:37.278Z,34.60
2018-10-09T23:48:09.752Z,36.87
2018-10-09T23:50:40.745Z,37.03
2018-10-09T23:53:09.077Z,34.67
2018-10-09T23:55:37.483Z,37.67
2018-10-09T23:58:06.284Z,33.77
